Terminal Aerodrome Forecast
Issued by NWS

Home | Current Version | Previous Version | Text Only | Print | Product List | Glossary On
Versions: 1 2 3 4 5 6 7 8 9 10 11 12 13 14 15 16
000
FTUS46 KMTR 291700
TAFSNS
TAF
KSNS 291740Z 2918/3018 26003KT P6SM OVC006
     FM291915 28005KT P6SM FEW010 SCT012
     FM292000 27012KT P6SM SKC
     FM300400 27008KT 6SM BR BKN009
     FM301000 VRB03KT 4SM BR OVC003
     FM301600 VRB03KT 6SM BR OVC007=

USA.gov is the U.S. government's official web portal to all federal, state and local government web resources and services.